Time;durP1;ratioP1;P1;durP2;ratioP2;P2;SDS_P1;SDS_P2;PMS_P1;PMS_P2;Temp;Humidity;BMP_temperature;BMP_pressure;BME280_temperature;BME280_humidity;BME280_pressure;Samples;Min_cycle;Max_cycle;Signal;HPM_P1;HPM_P2
2022/11/09 00:02:25;;;;;;;;;;;;;;;9.97;100.00;100267.59;5043071;28;19924;-77
2022/11/09 00:04:50;;;;;;;;;;;;;;;9.95;100.00;100276.53;5057450;28;20348;-77
2022/11/09 00:07:15;;;;;;;;;;;;;;;9.94;100.00;100273.06;5023595;28;19921;-76
2022/11/09 00:09:43;;;;;;;;;;;;;;;9.92;100.00;100275.78;5042438;28;19944;-77
2022/11/09 00:12:09;;;;;;;;;;;;;;;9.91;100.00;100282.00;5028060;28;19932;-77
2022/11/09 00:14:37;;;;;;;;;;;;;;;9.90;100.00;100267.09;5042385;28;20505;-77
2022/11/09 00:17:03;;;;;;;;;;;;;;;9.89;100.00;100269.78;5042282;28;19940;-76
2022/11/09 00:19:28;;;;;;;;;;;;;;;9.89;100.00;100269.78;5042615;28;20382;-76
2022/11/09 00:21:53;;;;;;;;;;;;;;;9.87;100.00;100269.88;5042585;28;20127;-77
2022/11/09 00:24:19;;;;;;;;;;;;;;;9.85;100.00;100271.75;5056712;28;20051;-77
2022/11/09 00:26:44;;;;;;;;;;;;;;;9.87;100.00;100277.81;5020398;28;19933;-76
2022/11/09 00:29:10;;;;;;;;;;;;;;;9.84;100.00;100270.03;5042332;28;20418;-77
2022/11/09 00:31:35;;;;;;;;;;;;;;;9.84;100.00;100270.03;5013842;28;19929;-77
2022/11/09 00:34:00;;;;;;;;;;;;;;;9.82;100.00;100268.41;5023261;28;19928;-77
2022/11/09 00:36:27;;;;;;;;;;;;;;;9.80;100.00;100263.19;5019416;28;20004;-76
2022/11/09 00:38:56;;;;;;;;;;;;;;;9.78;100.00;100265.06;5016424;28;19936;-77
2022/11/09 00:41:22;;;;;;;;;;;;;;;9.78;100.00;100265.94;5026433;28;20551;-76
2022/11/09 00:43:47;;;;;;;;;;;;;;;9.79;100.00;100264.13;5039586;28;19929;-76
2022/11/09 00:46:13;;;;;;;;;;;;;;;9.80;100.00;100265.84;5042069;28;20015;-77
2022/11/09 00:48:38;;;;;;;;;;;;;;;9.82;100.00;100266.63;5039233;28;20349;-77
2022/11/09 00:51:04;;;;;;;;;;;;;;;9.84;100.00;100262.09;5026187;28;19928;-77
2022/11/09 00:53:29;;;;;;;;;;;;;;;9.87;100.00;100258.47;5028819;28;19928;-77
2022/11/09 00:55:58;;;;;;;;;;;;;;;9.89;100.00;100265.38;5028970;28;19932;-77
2022/11/09 00:58:24;;;;;;;;;;;;;;;9.91;100.00;100263.50;5029109;28;19939;-76
2022/11/09 01:00:50;;;;;;;;;;;;;;;9.94;100.00;100264.25;5028620;28;19929;-77
2022/11/09 01:03:15;;;;;;;;;;;;;;;9.96;100.00;100263.25;5041961;28;19936;-76
2022/11/09 01:05:40;;;;;;;;;;;;;;;9.98;100.00;100269.31;5042028;28;19929;-77
2022/11/09 01:08:06;;;;;;;;;;;;;;;10.00;100.00;100248.94;5041883;28;19929;-76
2022/11/09 01:10:31;;;;;;;;;;;;;;;10.04;100.00;100252.28;5028827;28;19979;-76
2022/11/09 01:12:57;;;;;;;;;;;;;;;10.07;100.00;100249.47;5041475;28;19933;-76
2022/11/09 01:15:22;;;;;;;;;;;;;;;10.10;100.00;100251.97;5042072;28;19929;-76
2022/11/09 01:17:48;;;;;;;;;;;;;;;10.15;100.00;100257.00;5041889;28;19925;-75
2022/11/09 01:20:14;;;;;;;;;;;;;;;10.18;100.00;100260.34;5042318;28;20359;-76
2022/11/09 01:22:39;;;;;;;;;;;;;;;10.22;100.00;100258.38;5031828;28;19979;-76
2022/11/09 01:25:07;;;;;;;;;;;;;;;10.26;100.00;100259.06;5042369;28;19928;-76
2022/11/09 01:27:33;;;;;;;;;;;;;;;10.31;100.00;100262.34;5026378;28;19929;-77
2022/11/09 01:29:58;;;;;;;;;;;;;;;10.36;100.00;100270.88;5027865;28;19935;-76
2022/11/09 01:32:23;;;;;;;;;;;;;;;10.39;100.00;100261.91;5042431;28;19936;-76
2022/11/09 01:34:49;;;;;;;;;;;;;;;10.40;100.00;100261.81;5042365;28;19929;-76
2022/11/09 01:37:14;;;;;;;;;;;;;;;10.38;100.00;100252.25;5022812;28;20015;-76
2022/11/09 01:39:40;;;;;;;;;;;;;;;10.37;100.00;100254.06;5026036;28;19948;-76
2022/11/09 01:42:05;;;;;;;;;;;;;;;10.40;100.00;100255.69;5015892;28;19931;-76
2022/11/09 01:44:32;;;;;;;;;;;;;;;10.40;100.00;100261.00;5026568;28;19978;-76
2022/11/09 01:46:59;;;;;;;;;;;;;;;10.40;100.00;100253.88;5039464;28;19925;-76
2022/11/09 01:49:31;;;;;;;;;;;;;;;10.41;100.00;100255.59;5042157;28;19928;-76
2022/11/09 01:51:58;;;;;;;;;;;;;;;10.43;100.00;100253.78;5042448;28;19936;-76
2022/11/09 01:54:25;;;;;;;;;;;;;;;10.45;100.00;100246.59;5045845;28;20401;-76
2022/11/09 01:56:51;;;;;;;;;;;;;;;10.45;100.00;100251.03;5042813;28;20441;-77
2022/11/09 01:59:19;;;;;;;;;;;;;;;10.46;100.00;100250.09;5030159;28;19924;-76
2022/11/09 02:01:45;;;;;;;;;;;;;;;10.46;100.00;100255.38;5045529;28;19947;-76
2022/11/09 02:04:10;;;;;;;;;;;;;;;10.42;100.00;100254.69;5029794;28;19950;-77
2022/11/09 02:06:36;;;;;;;;;;;;;;;10.40;100.00;100253.88;5017309;28;19932;-76
2022/11/09 02:09:16;;;;;;;;;;;;;;;10.36;100.00;100252.38;5041795;28;20018;-77
2022/11/09 02:11:42;;;;;;;;;;;;;;;10.31;100.00;100257.03;5028796;28;19924;-76
2022/11/09 02:14:07;;;;;;;;;;;;;;;10.25;100.00;100246.78;5044336;28;19963;-76
2022/11/09 02:16:33;;;;;;;;;;;;;;;10.22;100.00;100252.22;5042571;28;20011;-76
2022/11/09 02:18:59;;;;;;;;;;;;;;;10.18;100.00;100254.19;5044899;28;19975;-76
2022/11/09 02:21:25;;;;;;;;;;;;;;;10.14;100.00;100258.78;5028589;28;19950;-76
2022/11/09 02:23:51;;;;;;;;;;;;;;;10.12;100.00;100257.16;4998020;28;19929;-76
2022/11/09 02:26:23;;;;;;;;;;;;;;;10.09;100.00;100255.56;5021945;28;19981;-76
2022/11/09 02:28:48;;;;;;;;;;;;;;;10.05;100.00;100251.34;5029418;28;19933;-76
2022/11/09 02:31:14;;;;;;;;;;;;;;;10.03;100.00;100250.59;5034646;28;19999;-76
2022/11/09 02:33:54;;;;;;;;;;;;;;;10.02;100.00;100251.53;5029308;28;20007;-76
2022/11/09 02:36:20;;;;;;;;;;;;;;;9.99;100.00;100254.31;5045844;28;19928;-76
2022/11/09 02:38:45;;;;;;;;;;;;;;;9.97;100.00;100251.75;5031123;28;19943;-76
2022/11/09 02:41:10;;;;;;;;;;;;;;;9.96;100.00;100252.69;5043995;28;19928;-77
2022/11/09 02:43:36;;;;;;;;;;;;;;;9.97;100.00;100243.81;5030906;28;19930;-76
2022/11/09 02:46:02;;;;;;;;;;;;;;;9.98;100.00;100242.88;5012082;28;20047;-76
2022/11/09 02:48:27;;;;;;;;;;;;;;;10.01;100.00;100249.78;5026093;28;19925;-76
2022/11/09 02:50:52;;;;;;;;;;;;;;;10.02;100.00;100236.50;5023521;28;20023;-75
2022/11/09 02:53:18;;;;;;;;;;;;;;;10.03;100.00;100242.66;5044004;28;20323;-76
2022/11/09 02:55:43;;;;;;;;;;;;;;;10.03;100.00;100240.00;5044722;28;20368;-76
2022/11/09 02:58:08;;;;;;;;;;;;;;;10.05;100.00;100251.34;5025047;28;19924;-76
2022/11/09 03:00:34;;;;;;;;;;;;;;;10.09;100.00;100255.56;5044293;28;20793;-76
2022/11/09 03:02:59;;;;;;;;;;;;;;;10.12;100.00;100254.50;5044230;28;19929;-76
2022/11/09 03:05:25;;;;;;;;;;;;;;;10.13;100.00;100256.25;5013718;28;19925;-76
2022/11/09 03:07:50;;;;;;;;;;;;;;;10.12;100.00;100255.38;5024656;28;19968;-76
2022/11/09 03:10:15;;;;;;;;;;;;;;;10.13;100.00;100256.25;5044474;28;19929;-76
2022/11/09 03:12:41;;;;;;;;;;;;;;;10.13;100.00;100264.19;5013092;28;19932;-75
2022/11/09 03:15:08;;;;;;;;;;;;;;;10.13;100.00;100249.13;5027571;28;20207;-76
2022/11/09 03:17:34;;;;;;;;;;;;;;;10.14;100.00;100244.72;5028146;28;20951;-76
2022/11/09 03:19:59;;;;;;;;;;;;;;;10.16;100.00;100248.13;5023845;28;20774;-77
2022/11/09 03:22:25;;;;;;;;;;;;;;;10.17;100.00;100250.69;5043523;28;19928;-76
2022/11/09 03:24:50;;;;;;;;;;;;;;;10.19;100.00;100255.91;5041314;28;20063;-77
2022/11/09 03:27:16;;;;;;;;;;;;;;;10.18;100.00;100251.53;5029266;28;20533;-76
2022/11/09 03:29:41;;;;;;;;;;;;;;;10.19;100.00;100253.28;5017105;28;19966;-76
2022/11/09 03:32:07;;;;;;;;;;;;;;;10.17;100.00;100247.19;5043739;28;20360;-76
2022/11/09 03:34:32;;;;;;;;;;;;;;;10.16;100.00;100238.41;5043286;28;19998;-76
2022/11/09 03:36:58;;;;;;;;;;;;;;;10.16;100.00;100249.00;5043857;28;20233;-76
2022/11/09 03:39:23;;;;;;;;;;;;;;;10.13;100.00;100254.44;5043532;28;19939;-76
2022/11/09 03:41:49;;;;;;;;;;;;;;;10.11;100.00;100266.03;5043255;28;19933;-77
2022/11/09 03:44:14;;;;;;;;;;;;;;;10.09;100.00;100268.78;5026991;28;19928;-76
2022/11/09 03:46:39;;;;;;;;;;;;;;;10.10;100.00;100278.41;5007698;28;19944;-76
2022/11/09 03:49:05;;;;;;;;;;;;;;;10.10;100.00;100281.06;5042318;28;19932;-77
2022/11/09 03:51:30;;;;;;;;;;;;;;;10.10;100.00;100281.06;5043514;28;20368;-76
2022/11/09 03:53:55;;;;;;;;;;;;;;;10.11;100.00;100288.06;5042986;28;19932;-76
2022/11/09 03:56:21;;;;;;;;;;;;;;;10.12;100.00;100292.41;5010319;28;19962;-76
2022/11/09 03:58:46;;;;;;;;;;;;;;;10.12;100.00;100305.63;5043090;28;19983;-77
2022/11/09 04:01:12;;;;;;;;;;;;;;;10.13;100.00;100304.69;5043134;28;20323;-77
2022/11/09 04:03:37;;;;;;;;;;;;;;;10.16;100.00;100303.69;5042734;28;19938;-77
2022/11/09 04:06:03;;;;;;;;;;;;;;;10.21;100.00;100298.13;5022423;28;20022;-76
2022/11/09 04:08:28;;;;;;;;;;;;;;;10.24;100.00;100303.28;5042834;28;19930;-76
2022/11/09 04:10:54;;;;;;;;;;;;;;;10.27;100.00;100298.69;5029208;28;20033;-76
2022/11/09 04:13:19;;;;;;;;;;;;;;;10.29;100.00;100307.38;5042205;28;19932;-77
2022/11/09 04:15:45;;;;;;;;;;;;;;;10.29;100.00;100307.38;5028480;28;20840;-76
2022/11/09 04:18:12;;;;;;;;;;;;;;;10.31;100.00;100310.81;5042834;28;20051;-77
2022/11/09 04:20:37;;;;;;;;;;;;;;;10.33;100.00;100305.44;5042634;28;19932;-76
2022/11/09 04:23:03;;;;;;;;;;;;;;;10.32;100.00;100295.78;5023801;28;19929;-77
2022/11/09 04:25:33;;;;;;;;;;;;;;;10.32;100.00;100299.31;4999494;28;19927;-77
2022/11/09 04:27:59;;;;;;;;;;;;;;;10.31;100.00;100302.03;5025260;28;19932;-76
2022/11/09 04:30:26;;;;;;;;;;;;;;;10.29;100.00;100306.53;5022898;28;19936;-77
2022/11/09 04:32:52;;;;;;;;;;;;;;;10.28;100.00;100310.09;5028807;28;19967;-77
2022/11/09 04:35:18;;;;;;;;;;;;;;;10.28;100.00;100304.81;5026612;28;20046;-76
2022/11/09 04:37:43;;;;;;;;;;;;;;;10.30;100.00;100313.56;5042337;28;19928;-77
2022/11/09 04:40:09;;;;;;;;;;;;;;;10.33;100.00;100313.38;5028923;28;20025;-77
2022/11/09 04:42:34;;;;;;;;;;;;;;;10.36;100.00;100321.16;5027001;28;20513;-77
2022/11/09 04:45:00;;;;;;;;;;;;;;;10.39;100.00;100312.19;5028566;28;19933;-77
2022/11/09 04:47:26;;;;;;;;;;;;;;;10.43;100.00;100313.78;5042659;28;19928;-77
2022/11/09 04:49:51;;;;;;;;;;;;;;;10.46;100.00;100314.47;5022839;28;19929;-77
2022/11/09 04:52:17;;;;;;;;;;;;;;;10.47;100.00;100325.91;5042411;28;20419;-76
2022/11/09 04:54:42;;;;;;;;;;;;;;;10.48;100.00;100329.41;5042479;28;20550;-76
2022/11/09 04:57:07;;;;;;;;;;;;;;;10.48;100.00;100326.75;5021748;28;19929;-77
2022/11/09 04:59:33;;;;;;;;;;;;;;;10.47;100.00;100336.50;5042051;28;19925;-77
2022/11/09 05:01:58;;;;;;;;;;;;;;;10.49;100.00;100328.47;5042051;28;20063;-77
2022/11/09 05:04:24;;;;;;;;;;;;;;;10.51;100.00;100334.53;5014775;28;20186;-76
2022/11/09 05:06:49;;;;;;;;;;;;;;;10.52;100.00;100341.53;5042346;28;19924;-76
2022/11/09 05:09:14;;;;;;;;;;;;;;;10.52;100.00;100328.31;5042498;28;19925;-77
2022/11/09 05:11:40;;;;;;;;;;;;;;;10.53;100.00;100333.53;5026458;28;19931;-76
2022/11/09 05:14:05;;;;;;;;;;;;;;;10.54;100.00;100331.72;5042777;28;19928;-76
2022/11/09 05:16:31;;;;;;;;;;;;;;;10.53;100.00;100332.66;5029138;28;19934;-77
2022/11/09 05:18:56;;;;;;;;;;;;;;;10.50;100.00;100320.44;5028933;28;19929;-77
2022/11/09 05:21:21;;;;;;;;;;;;;;;10.47;100.00;100336.50;5042208;28;19929;-77
2022/11/09 05:23:59;;;;;;;;;;;;;;;10.45;100.00;100335.72;5028421;28;19937;-77
2022/11/09 05:26:27;;;;;;;;;;;;;;;10.41;100.00;100328.84;5012593;28;20323;-77
2022/11/09 05:28:53;;;;;;;;;;;;;;;10.39;100.00;100325.41;5015741;28;19928;-76
2022/11/09 05:31:19;;;;;;;;;;;;;;;10.35;100.00;100345.88;5032791;28;20011;-76
2022/11/09 05:33:46;;;;;;;;;;;;;;;10.31;100.00;100336.41;5045318;28;20367;-77
2022/11/09 05:36:11;;;;;;;;;;;;;;;10.28;100.00;100340.06;5029590;28;19929;-77
2022/11/09 05:38:37;;;;;;;;;;;;;;;10.27;100.00;100340.16;5032122;28;19935;-76
2022/11/09 05:41:02;;;;;;;;;;;;;;;10.25;100.00;100345.50;5045148;28;19941;-77
2022/11/09 05:43:28;;;;;;;;;;;;;;;10.25;100.00;100337.56;5045435;28;22189;-77
2022/11/09 05:45:53;;;;;;;;;;;;;;;10.24;100.00;100340.31;5029925;28;19932;-76
2022/11/09 05:48:19;;;;;;;;;;;;;;;10.22;100.00;100337.75;5015058;28;19929;-77
2022/11/09 05:50:44;;;;;;;;;;;;;;;10.21;100.00;100345.75;5045744;28;21445;-76
2022/11/09 05:53:10;;;;;;;;;;;;;;;10.21;100.00;100341.34;5059959;28;20022;-77
2022/11/09 05:55:35;;;;;;;;;;;;;;;10.18;100.00;100338.84;5027453;28;19928;-76
2022/11/09 05:58:01;;;;;;;;;;;;;;;10.17;100.00;100340.63;5015207;28;20028;-76
2022/11/09 06:00:27;;;;;;;;;;;;;;;10.14;100.00;100345.25;5045493;28;19935;-77
2022/11/09 06:02:52;;;;;;;;;;;;;;;10.12;100.00;100345.31;5019553;28;19936;-77
2022/11/09 06:05:19;;;;;;;;;;;;;;;10.09;100.00;100348.13;5026402;28;20113;-77
2022/11/09 06:07:44;;;;;;;;;;;;;;;10.07;100.00;100349.97;5029809;28;19925;-76
2022/11/09 06:10:10;;;;;;;;;;;;;;;10.07;100.00;100347.31;5045403;28;19964;-77
2022/11/09 06:12:35;;;;;;;;;;;;;;;10.07;100.00;100346.50;5045322;28;20383;-77
2022/11/09 06:15:01;;;;;;;;;;;;;;;10.03;100.00;100348.44;5012607;28;20044;-76
2022/11/09 06:17:26;;;;;;;;;;;;;;;10.01;100.00;100355.56;5006240;28;20546;-77
2022/11/09 06:19:52;;;;;;;;;;;;;;;9.99;100.00;100350.38;5008194;28;19936;-77
2022/11/09 06:22:17;;;;;;;;;;;;;;;9.98;100.00;100358.38;5023388;28;19925;-76
2022/11/09 06:24:43;;;;;;;;;;;;;;;9.96;100.00;100363.75;5010718;28;19988;-77
2022/11/09 06:27:08;;;;;;;;;;;;;;;9.94;100.00;100359.47;5008194;28;19987;-76
2022/11/09 06:29:34;;;;;;;;;;;;;;;9.91;100.00;100357.81;4976506;28;19925;-77
2022/11/09 06:31:59;;;;;;;;;;;;;;;9.89;100.00;100363.22;5007141;28;19933;-77
2022/11/09 06:34:25;;;;;;;;;;;;;;;9.89;100.00;100376.44;5039686;28;19936;-77
2022/11/09 06:36:50;;;;;;;;;;;;;;;9.89;100.00;100375.56;4992362;28;20020;-77
2022/11/09 06:39:16;;;;;;;;;;;;;;;9.87;100.00;100374.78;5006636;28;20190;-76
2022/11/09 06:41:41;;;;;;;;;;;;;;;9.83;100.00;100376.72;5007709;28;20408;-77
2022/11/09 06:44:07;;;;;;;;;;;;;;;9.81;100.00;100381.22;5022246;28;19940;-77
2022/11/09 06:46:32;;;;;;;;;;;;;;;9.80;100.00;100390.09;5005029;28;20060;-77
2022/11/09 06:48:57;;;;;;;;;;;;;;;9.75;100.00;100386.84;5022626;28;20042;-77
2022/11/09 06:51:23;;;;;;;;;;;;;;;9.72;100.00;100387.84;5007997;28;20278;-77
2022/11/09 06:53:48;;;;;;;;;;;;;;;9.71;100.00;100383.50;5022168;28;19968;-77
2022/11/09 06:56:14;;;;;;;;;;;;;;;9.72;100.00;100384.34;5007525;28;19929;-76
2022/11/09 06:58:39;;;;;;;;;;;;;;;9.72;100.00;100392.25;5022277;28;19929;-77
2022/11/09 07:01:09;;;;;;;;;;;;;;;9.71;100.00;100401.13;5007401;28;19933;-77
2022/11/09 07:03:34;;;;;;;;;;;;;;;9.68;100.00;100395.97;4995356;28;20390;-77
2022/11/09 07:06:03;;;;;;;;;;;;;;;9.65;100.00;100397.84;5007156;28;20411;-77
2022/11/09 07:08:28;;;;;;;;;;;;;;;9.64;100.00;100401.44;5011060;28;19929;-77
2022/11/09 07:10:54;;;;;;;;;;;;;;;9.61;100.00;100406.88;5007098;28;20185;-77
2022/11/09 07:13:19;;;;;;;;;;;;;;;9.59;100.00;100408.72;5011292;28;19934;-77
2022/11/09 07:15:45;;;;;;;;;;;;;;;9.60;100.00;100415.72;5017764;28;19937;-77
2022/11/09 07:18:11;;;;;;;;;;;;;;;9.60;100.00;100415.72;5023979;28;19958;-77
2022/11/09 07:20:37;;;;;;;;;;;;;;;9.61;100.00;100417.44;5022811;28;19931;-77
2022/11/09 07:23:02;;;;;;;;;;;;;;;9.63;100.00;100409.41;5023861;28;19937;-77
2022/11/09 07:25:28;;;;;;;;;;;;;;;9.65;100.00;100415.50;5023466;28;20164;-77
2022/11/09 07:27:53;;;;;;;;;;;;;;;9.66;100.00;100422.50;5024059;28;19929;-77
2022/11/09 07:30:18;;;;;;;;;;;;;;;9.69;100.00;100416.22;5024045;28;20388;-77
2022/11/09 07:32:44;;;;;;;;;;;;;;;9.72;100.00;100429.28;5023115;28;19933;-77
2022/11/09 07:35:09;;;;;;;;;;;;;;;9.77;100.00;100427.25;5023582;28;20280;-77
2022/11/09 07:37:35;;;;;;;;;;;;;;;9.77;100.00;100432.56;5007016;28;19925;-77
2022/11/09 07:40:00;;;;;;;;;;;;;;;9.79;100.00;100435.97;5021622;28;19971;-77
2022/11/09 07:42:25;;;;;;;;;;;;;;;9.81;100.00;100435.91;5025545;28;20289;-77
2022/11/09 07:44:51;;;;;;;;;;;;;;;9.84;100.00;100439.25;5023459;28;19936;-76
2022/11/09 07:47:17;;;;;;;;;;;;;;;9.87;100.00;100439.09;5025267;28;19920;-77
2022/11/09 07:49:43;;;;;;;;;;;;;;;9.91;100.00;100438.03;5020500;28;20364;-77
2022/11/09 07:52:08;;;;;;;;;;;;;;;9.95;100.00;100451.06;5023406;28;19937;-77
2022/11/09 07:54:34;;;;;;;;;;;;;;;10.00;100.00;100449.06;5025453;28;19933;-76
2022/11/09 07:57:00;;;;;;;;;;;;;;;10.05;100.00;100457.63;5027290;28;19929;-77
2022/11/09 07:59:25;;;;;;;;;;;;;;;10.09;100.00;100453.91;5025585;28;20461;-77
2022/11/09 08:01:51;;;;;;;;;;;;;;;10.10;100.00;100442.41;5022572;28;20533;-77
2022/11/09 08:04:16;;;;;;;;;;;;;;;10.12;100.00;100453.75;5022810;28;19940;-77
2022/11/09 08:06:42;;;;;;;;;;;;;;;10.15;100.00;100453.59;5023063;28;20422;-77
2022/11/09 08:09:07;;;;;;;;;;;;;;;10.14;100.00;100457.16;5022325;28;19936;-76
2022/11/09 08:11:32;;;;;;;;;;;;;;;10.15;100.00;100456.22;5022909;28;20308;-77
2022/11/09 08:13:58;;;;;;;;;;;;;;;10.16;100.00;100459.75;5022723;28;19929;-77
2022/11/09 08:16:23;;;;;;;;;;;;;;;10.14;100.00;100454.53;5042288;28;20074;-77
2022/11/09 08:18:49;;;;;;;;;;;;;;;10.16;100.00;100465.91;5042513;28;19933;-77
2022/11/09 08:21:14;;;;;;;;;;;;;;;10.19;100.00;100462.25;5029611;28;20474;-77
2022/11/09 08:23:40;;;;;;;;;;;;;;;10.24;100.00;100464.66;5026798;28;19932;-77
2022/11/09 08:26:06;;;;;;;;;;;;;;;10.33;100.00;100456.25;5042864;28;19976;-77
2022/11/09 08:28:33;;;;;;;;;;;;;;;10.45;100.00;100468.03;5029221;28;20384;-77
2022/11/09 08:31:00;;;;;;;;;;;;;;;10.56;100.00;100456.88;5042291;28;20154;-77
2022/11/09 08:33:26;;;;;;;;;;;;;;;10.67;100.00;100466.94;5023153;28;19929;-76
2022/11/09 08:35:52;;;;;;;;;;;;;;;10.75;100.00;100471.84;5016228;28;20035;-77
2022/11/09 08:38:17;;;;;;;;;;;;;;;10.78;100.00;100467.22;5055756;28;19929;-77
2022/11/09 08:40:42;;;;;;;;;;;;;;;10.81;100.00;100466.22;5042688;28;19928;-77
2022/11/09 08:43:09;;;;;;;;;;;;;;;10.81;100.00;100461.78;5042695;28;19935;-77
2022/11/09 08:45:35;;;;;;;;;;;;;;;10.87;100.00;100463.25;5022572;28;19925;-77
2022/11/09 08:48:00;;;;;;;;;;;;;;;10.93;100.00;100462.94;5024736;28;20605;-77
2022/11/09 08:50:27;;;;;;;;;;;;;;;10.97;100.00;100461.84;5042093;28;19982;-76
2022/11/09 08:52:52;;;;;;;;;;;;;;;10.99;100.00;100469.69;5028498;28;20799;-77
2022/11/09 08:55:18;;;;;;;;;;;;;;;11.00;100.00;100476.69;5042331;28;19971;-77
2022/11/09 08:57:43;;;;;;;;;;;;;;;11.02;100.00;100474.84;5027296;28;20342;-77
2022/11/09 09:00:09;;;;;;;;;;;;;;;11.05;100.00;100479.94;5025532;28;19925;-77
2022/11/09 09:02:34;;;;;;;;;;;;;;;11.09;100.00;100473.56;5045665;28;19925;-77
2022/11/09 09:05:00;;;;;;;;;;;;;;;11.14;100.00;100470.66;5046491;28;19998;-77
2022/11/09 09:07:25;;;;;;;;;;;;;;;11.19;100.00;100475.72;5046045;28;20311;-77
2022/11/09 09:09:51;;;;;;;;;;;;;;;11.19;100.00;100476.56;5046727;28;20499;-77
2022/11/09 09:12:17;;;;;;;;;;;;;;;11.19;100.00;100470.41;5046893;28;20307;-77
2022/11/09 09:14:43;;;;;;;;;;;;;;;11.18;100.00;100469.56;5029633;28;19985;-77
2022/11/09 09:17:08;;;;;;;;;;;;;;;11.18;100.00;100474.88;5030689;28;20482;-77
2022/11/09 09:19:34;;;;;;;;;;;;;;;11.16;100.00;100468.78;5015789;28;20023;-77
2022/11/09 09:22:00;;;;;;;;;;;;;;;11.13;100.00;100467.16;5032660;28;19932;-77
2022/11/09 09:24:25;;;;;;;;;;;;;;;11.13;100.00;100471.59;5015917;28;19964;-76
2022/11/09 09:26:51;;;;;;;;;;;;;;;11.12;100.00;100465.44;5046213;28;20032;-78
2022/11/09 09:29:16;;;;;;;;;;;;;;;11.12;100.00;100464.59;5026123;28;20492;-77
2022/11/09 09:31:42;;;;;;;;;;;;;;;11.15;100.00;100485.63;5045702;28;19925;-77
2022/11/09 09:34:07;;;;;;;;;;;;;;;11.15;100.00;100472.38;5030154;28;20334;-77
2022/11/09 09:36:34;;;;;;;;;;;;;;;11.15;100.00;100469.72;5045877;28;20531;-77
2022/11/09 09:38:59;;;;;;;;;;;;;;;11.16;100.00;100471.44;5030250;28;20042;-78
2022/11/09 09:41:25;;;;;;;;;;;;;;;11.18;100.00;100471.34;5024906;28;19928;-78
2022/11/09 09:43:51;;;;;;;;;;;;;;;11.20;100.00;100480.94;5026116;28;20324;-77
2022/11/09 09:46:25;;;;;;;;;;;;;;;11.20;100.00;100478.28;5042755;28;19950;-77
2022/11/09 09:49:16;;;;;;;;;;;;;;;11.21;100.00;100476.47;5012947;28;19924;-77
2022/11/09 09:52:01;;;;;;;;;;;;;;;11.23;100.00;100483.41;5044501;28;20435;-77
2022/11/09 09:54:30;;;;;;;;;;;;;;;11.24;100.00;100487.75;5045554;28;19924;-77
2022/11/09 09:56:57;;;;;;;;;;;;;;;11.28;100.00;100491.97;5044956;28;21491;-77
2022/11/09 09:59:41;;;;;;;;;;;;;;;11.31;100.00;100495.38;5030180;28;19931;-77
2022/11/09 10:02:17;;;;;;;;;;;;;;;11.39;100.00;100501.97;5045572;28;20295;-77
2022/11/09 10:04:43;;;;;;;;;;;;;;;11.48;100.00;100510.38;5029735;28;20588;-78
2022/11/09 10:07:10;;;;;;;;;;;;;;;11.56;100.00;100510.81;5044821;28;20761;-77
2022/11/09 10:09:54;;;;;;;;;;;;;;;11.61;100.00;100514.06;5045280;28;20375;-77
2022/11/09 10:12:28;;;;;;;;;;;;;;;11.65;100.00;100504.13;5044952;28;19928;-77
2022/11/09 10:14:53;;;;;;;;;;;;;;;11.65;100.00;100512.09;5044163;28;19928;-76
2022/11/09 10:17:28;;;;;;;;;;;;;;;11.59;100.00;100515.09;5044926;28;20411;-77
2022/11/09 10:20:14;;;;;;;;;;;;;;;11.56;100.00;100508.19;5026191;28;19932;-77
2022/11/09 10:22:42;;;;;;;;;;;;;;;11.53;100.00;100519.78;5045136;28;19932;-77
2022/11/09 10:25:14;;;;;;;;;;;;;;;11.52;100.00;100526.03;5058889;28;20369;-78
2022/11/09 10:27:41;;;;;;;;;;;;;;;11.52;100.00;100510.13;5013874;28;19928;-77
2022/11/09 10:30:11;;;;;;;;;;;;;;;11.55;100.00;100515.25;5027449;28;19978;-77
2022/11/09 10:32:36;;;;;;;;;;;;;;;11.64;100.00;100513.03;5014184;28;19925;-77
2022/11/09 10:35:19;;;;;;;;;;;;;;;11.69;100.00;100516.28;5029349;28;19924;-78
2022/11/09 10:37:45;;;;;;;;;;;;;;;11.74;100.00;100508.94;5043714;28;19932;-76
2022/11/09 10:40:21;;;;;;;;;;;;;;;11.74;100.00;100502.78;5017935;28;19928;-76
2022/11/09 10:42:48;;;;;;;;;;;;;;;11.74;100.00;100513.38;5027668;28;19925;-77
2022/11/09 10:45:33;;;;;;;;;;;;;;;11.77;100.00;100516.72;5058461;28;19937;-77
2022/11/09 10:47:58;;;;;;;;;;;;;;;11.81;100.00;100509.44;5028799;28;19983;-77
2022/11/09 10:50:26;;;;;;;;;;;;;;;11.86;100.00;100525.09;5041454;28;20411;-77
2022/11/09 10:52:51;;;;;;;;;;;;;;;11.87;100.00;100509.09;5023317;28;19928;-77
2022/11/09 10:55:24;;;;;;;;;;;;;;;11.88;100.00;100518.75;5043582;28;19987;-77
2022/11/09 10:57:54;;;;;;;;;;;;;;;11.92;100.00;100508.84;5027455;28;20345;-77
2022/11/09 11:00:20;;;;;;;;;;;;;;;11.95;100.00;100511.34;5007326;28;20307;-77
2022/11/09 11:02:46;;;;;;;;;;;;;;;11.94;100.00;100499.00;5034062;28;19929;-77
2022/11/09 11:05:14;;;;;;;;;;;;;;;11.92;100.00;100493.78;5058561;28;19970;-75
2022/11/09 11:07:40;;;;;;;;;;;;;;;11.89;100.00;100506.38;5043575;28;20024;-77
2022/11/09 11:10:14;;;;;;;;;;;;;;;11.83;100.00;100512.88;5024919;28;19929;-78
2022/11/09 11:12:44;;;;;;;;;;;;;;;11.78;100.00;100510.47;5044053;28;20341;-77
2022/11/09 11:15:23;;;;;;;;;;;;;;;11.72;100.00;100502.84;5024387;28;19954;-77
2022/11/09 11:17:49;;;;;;;;;;;;;;;11.71;100.00;100508.25;5024803;28;20398;-77
2022/11/09 11:20:25;;;;;;;;;;;;;;;11.71;100.00;100508.25;5027564;28;19963;-77
2022/11/09 11:22:51;;;;;;;;;;;;;;;11.71;100.00;100505.63;5043746;28;21450;-77
2022/11/09 11:25:20;;;;;;;;;;;;;;;11.73;100.00;100512.53;4995842;28;20024;-78
2022/11/09 11:27:53;;;;;;;;;;;;;;;11.74;100.00;100503.66;5011184;28;20474;-78
2022/11/09 11:30:21;;;;;;;;;;;;;;;11.77;100.00;100511.41;5043600;28;19948;-77
2022/11/09 11:32:47;;;;;;;;;;;;;;;11.77;100.00;100508.75;5030384;28;21612;-77
2022/11/09 11:35:17;;;;;;;;;;;;;;;11.75;100.00;100517.75;5040888;28;20706;-77
2022/11/09 11:38:15;;;;;;;;;;;;;;;11.66;100.00;100511.19;5030444;28;20448;-77
2022/11/09 11:40:42;;;;;;;;;;;;;;;11.44;100.00;100503.53;5024297;28;20485;-76
2022/11/09 11:43:14;;;;;;;;;;;;;;;11.29;100.00;100503.44;5029488;28;19935;-77
2022/11/09 11:45:39;;;;;;;;;;;;;;;11.19;100.00;100500.41;5043100;28;19924;-77
2022/11/09 11:48:08;;;;;;;;;;;;;;;11.08;100.00;100508.94;5042963;28;19971;-77
2022/11/09 11:50:36;;;;;;;;;;;;;;;11.00;100.00;100498.75;5042402;28;19939;-77
2022/11/09 11:53:05;;;;;;;;;;;;;;;10.93;100.00;100497.34;5040686;28;19979;-77
2022/11/09 11:55:40;;;;;;;;;;;;;;;10.87;100.00;100502.97;5040559;28;19932;-77
2022/11/09 11:58:24;;;;;;;;;;;;;;;10.81;100.00;100501.50;5023399;28;21853;-77
2022/11/09 12:00:59;;;;;;;;;;;;;;;10.77;100.00;100513.19;5043134;28;19943;-78
2022/11/09 12:03:42;;;;;;;;;;;;;;;10.73;100.00;100516.91;5043310;28;19928;-77
2022/11/09 12:06:20;;;;;;;;;;;;;;;10.68;100.00;100509.22;5042947;28;19929;-78
2022/11/09 12:08:55;;;;;;;;;;;;;;;10.63;100.00;100500.66;5042966;28;19925;-78
2022/11/09 12:11:39;;;;;;;;;;;;;;;10.61;100.00;100494.56;5043264;28;20010;-78
2022/11/09 12:14:04;;;;;;;;;;;;;;;10.58;100.00;100535.28;5042692;28;19932;-78
2022/11/09 12:16:33;;;;;;;;;;;;;;;10.54;100.00;100531.09;5042704;28;19925;-77
2022/11/09 12:19:16;;;;;;;;;;;;;;;10.41;100.00;100524.69;5022561;28;19932;-79
2022/11/09 12:21:50;;;;;;;;;;;;;;;10.13;100.00;100521.59;5043856;28;20020;-79
2022/11/09 12:24:25;;;;;;;;;;;;;;;9.94;100.00;100523.41;5027433;28;20032;-77
2022/11/09 12:26:54;;;;;;;;;;;;;;;9.75;100.00;100521.66;5042389;28;19933;-77
2022/11/09 12:29:20;;;;;;;;;;;;;;;9.66;100.00;100515.00;5026328;28;20010;-77